sensor_id;sensor_type;location;lat;lon;timestamp;P1;durP1;ratioP1;P2;durP2;ratioP2
65533;SDS011;53640;55.838;37.184;2022-09-09T00:04:17;7.22;;;4.55;;
65533;SDS011;53640;55.838;37.184;2022-09-09T00:07:16;6.68;;;3.97;;
65533;SDS011;53640;55.838;37.184;2022-09-09T00:17:49;3.00;;;2.70;;
65533;SDS011;53640;55.838;37.184;2022-09-09T00:23:34;6.03;;;2.80;;
65533;SDS011;53640;55.838;37.184;2022-09-09T00:28:46;4.35;;;2.67;;
65533;SDS011;53640;55.838;37.184;2022-09-09T00:31:20;3.58;;;2.90;;
65533;SDS011;53640;55.838;37.184;2022-09-09T00:33:50;2.83;;;2.28;;
65533;SDS011;53640;55.838;37.184;2022-09-09T00:36:20;3.17;;;2.15;;
65533;SDS011;53640;55.838;37.184;2022-09-09T00:38:52;2.00;;;1.80;;
65533;SDS011;53640;55.838;37.184;2022-09-09T00:57:23;1.80;;;1.70;;
65533;SDS011;53640;55.838;37.184;2022-09-09T01:05:23;3.05;;;1.70;;
65533;SDS011;53640;55.838;37.184;2022-09-09T01:08:14;1.80;;;1.52;;
65533;SDS011;53640;55.838;37.184;2022-09-09T01:10:50;2.70;;;2.10;;
65533;SDS011;53640;55.838;37.184;2022-09-09T01:13:26;2.92;;;2.10;;
65533;SDS011;53640;55.838;37.184;2022-09-09T01:16:04;2.03;;;1.90;;
65533;SDS011;53640;55.838;37.184;2022-09-09T01:18:37;2.78;;;2.25;;
65533;SDS011;53640;55.838;37.184;2022-09-09T01:21:15;2.13;;;1.90;;
65533;SDS011;53640;55.838;37.184;2022-09-09T01:26:32;2.75;;;2.30;;
65533;SDS011;53640;55.838;37.184;2022-09-09T01:29:09;1.92;;;1.60;;
65533;SDS011;53640;55.838;37.184;2022-09-09T01:31:56;2.35;;;1.80;;
65533;SDS011;53640;55.838;37.184;2022-09-09T01:34:36;2.45;;;2.10;;
65533;SDS011;53640;55.838;37.184;2022-09-09T01:37:10;2.60;;;2.00;;
65533;SDS011;53640;55.838;37.184;2022-09-09T01:39:40;1.90;;;1.70;;
65533;SDS011;53640;55.838;37.184;2022-09-09T01:42:12;1.67;;;1.58;;
65533;SDS011;53640;55.838;37.184;2022-09-09T01:44:41;4.05;;;1.85;;
65533;SDS011;53640;55.838;37.184;2022-09-09T01:47:07;2.78;;;2.00;;
65533;SDS011;53640;55.838;37.184;2022-09-09T01:49:46;1.90;;;1.75;;
65533;SDS011;53640;55.838;37.184;2022-09-09T01:52:20;2.55;;;1.75;;
65533;SDS011;53640;55.838;37.184;2022-09-09T01:54:47;4.15;;;1.90;;
65533;SDS011;53640;55.838;37.184;2022-09-09T01:57:25;2.13;;;1.98;;
65533;SDS011;53640;55.838;37.184;2022-09-09T02:00:07;2.38;;;1.60;;
65533;SDS011;53640;55.838;37.184;2022-09-09T02:08:50;3.45;;;1.63;;
65533;SDS011;53640;55.838;37.184;2022-09-09T02:11:24;2.28;;;1.60;;
65533;SDS011;53640;55.838;37.184;2022-09-09T02:14:00;1.40;;;1.30;;
65533;SDS011;53640;55.838;37.184;2022-09-09T02:19:03;1.52;;;1.42;;
65533;SDS011;53640;55.838;37.184;2022-09-09T02:22:13;2.10;;;1.52;;
65533;SDS011;53640;55.838;37.184;2022-09-09T02:24:39;1.77;;;1.30;;
65533;SDS011;53640;55.838;37.184;2022-09-09T02:27:17;1.70;;;1.58;;
65533;SDS011;53640;55.838;37.184;2022-09-09T02:29:45;1.52;;;1.30;;
65533;SDS011;53640;55.838;37.184;2022-09-09T02:32:21;1.90;;;1.48;;
65533;SDS011;53640;55.838;37.184;2022-09-09T02:34:52;1.30;;;1.20;;
65533;SDS011;53640;55.838;37.184;2022-09-09T02:37:23;2.53;;;1.55;;
65533;SDS011;53640;55.838;37.184;2022-09-09T02:39:55;2.85;;;1.80;;
65533;SDS011;53640;55.838;37.184;2022-09-09T02:42:22;2.05;;;1.52;;
65533;SDS011;53640;55.838;37.184;2022-09-09T02:44:51;1.80;;;1.52;;
65533;SDS011;53640;55.838;37.184;2022-09-09T02:47:33;2.03;;;1.50;;
65533;SDS011;53640;55.838;37.184;2022-09-09T02:50:42;2.55;;;1.50;;
65533;SDS011;53640;55.838;37.184;2022-09-09T02:56:37;1.45;;;1.30;;
65533;SDS011;53640;55.838;37.184;2022-09-09T02:58:47;1.30;;;1.20;;
65533;SDS011;53640;55.838;37.184;2022-09-09T03:01:15;1.52;;;1.42;;
65533;SDS011;53640;55.838;37.184;2022-09-09T03:03:42;2.17;;;1.17;;
65533;SDS011;53640;55.838;37.184;2022-09-09T03:06:14;1.67;;;1.30;;
65533;SDS011;53640;55.838;37.184;2022-09-09T03:08:41;2.35;;;1.45;;
65533;SDS011;53640;55.838;37.184;2022-09-09T03:11:08;1.27;;;1.15;;
65533;SDS011;53640;55.838;37.184;2022-09-09T03:13:36;2.00;;;1.30;;
65533;SDS011;53640;55.838;37.184;2022-09-09T03:16:05;2.53;;;1.40;;
65533;SDS011;53640;55.838;37.184;2022-09-09T03:18:36;1.43;;;1.33;;
65533;SDS011;53640;55.838;37.184;2022-09-09T03:21:02;1.40;;;1.27;;
65533;SDS011;53640;55.838;37.184;2022-09-09T03:23:29;1.95;;;1.33;;
65533;SDS011;53640;55.838;37.184;2022-09-09T03:25:57;1.95;;;1.33;;
65533;SDS011;53640;55.838;37.184;2022-09-09T03:28:34;5.03;;;1.10;;
65533;SDS011;53640;55.838;37.184;2022-09-09T03:31:05;2.35;;;1.10;;
65533;SDS011;53640;55.838;37.184;2022-09-09T03:33:36;1.83;;;1.70;;
65533;SDS011;53640;55.838;37.184;2022-09-09T03:36:04;1.45;;;1.35;;
65533;SDS011;53640;55.838;37.184;2022-09-09T03:38:31;1.30;;;1.20;;
65533;SDS011;53640;55.838;37.184;2022-09-09T03:40:58;2.22;;;1.20;;
65533;SDS011;53640;55.838;37.184;2022-09-09T03:43:27;2.50;;;1.42;;
65533;SDS011;53640;55.838;37.184;2022-09-09T03:45:55;1.88;;;1.27;;
65533;SDS011;53640;55.838;37.184;2022-09-09T03:48:24;1.50;;;1.15;;
65533;SDS011;53640;55.838;37.184;2022-09-09T03:50:52;1.65;;;1.35;;
65533;SDS011;53640;55.838;37.184;2022-09-09T03:53:23;1.77;;;1.67;;
65533;SDS011;53640;55.838;37.184;2022-09-09T03:55:52;1.05;;;0.98;;
65533;SDS011;53640;55.838;37.184;2022-09-09T03:58:22;2.05;;;1.45;;
65533;SDS011;53640;55.838;37.184;2022-09-09T04:00:57;1.20;;;1.10;;
65533;SDS011;53640;55.838;37.184;2022-09-09T04:03:26;1.33;;;1.23;;
65533;SDS011;53640;55.838;37.184;2022-09-09T04:05:54;3.63;;;1.75;;
65533;SDS011;53640;55.838;37.184;2022-09-09T04:08:23;2.33;;;1.58;;
65533;SDS011;53640;55.838;37.184;2022-09-09T04:10:54;1.98;;;1.50;;
65533;SDS011;53640;55.838;37.184;2022-09-09T04:13:24;1.65;;;1.20;;
65533;SDS011;53640;55.838;37.184;2022-09-09T04:15:55;1.25;;;1.10;;
65533;SDS011;53640;55.838;37.184;2022-09-09T04:18:24;1.60;;;1.40;;
65533;SDS011;53640;55.838;37.184;2022-09-09T04:20:52;2.67;;;1.60;;
65533;SDS011;53640;55.838;37.184;2022-09-09T04:23:22;2.45;;;1.42;;
65533;SDS011;53640;55.838;37.184;2022-09-09T04:25:51;5.93;;;1.75;;
65533;SDS011;53640;55.838;37.184;2022-09-09T04:28:20;3.15;;;1.45;;
65533;SDS011;53640;55.838;37.184;2022-09-09T04:30:48;3.35;;;1.33;;
65533;SDS011;53640;55.838;37.184;2022-09-09T04:33:14;1.80;;;1.38;;
65533;SDS011;53640;55.838;37.184;2022-09-09T04:35:45;2.80;;;1.30;;
65533;SDS011;53640;55.838;37.184;2022-09-09T04:38:15;5.30;;;2.42;;
65533;SDS011;53640;55.838;37.184;2022-09-09T04:40:43;3.17;;;1.92;;
65533;SDS011;53640;55.838;37.184;2022-09-09T04:43:13;5.50;;;1.50;;
65533;SDS011;53640;55.838;37.184;2022-09-09T04:45:42;4.40;;;1.40;;
65533;SDS011;53640;55.838;37.184;2022-09-09T04:48:10;3.58;;;1.52;;
65533;SDS011;53640;55.838;37.184;2022-09-09T04:50:36;1.70;;;1.40;;
65533;SDS011;53640;55.838;37.184;2022-09-09T04:53:03;2.65;;;1.92;;
65533;SDS011;53640;55.838;37.184;2022-09-09T04:55:31;1.83;;;1.52;;
65533;SDS011;53640;55.838;37.184;2022-09-09T04:58:05;3.63;;;1.00;;
65533;SDS011;53640;55.838;37.184;2022-09-09T05:00:33;1.73;;;1.30;;
65533;SDS011;53640;55.838;37.184;2022-09-09T05:05:33;1.60;;;1.50;;
65533;SDS011;53640;55.838;37.184;2022-09-09T05:08:06;1.20;;;1.10;;
65533;SDS011;53640;55.838;37.184;2022-09-09T05:10:36;3.90;;;1.30;;
65533;SDS011;53640;55.838;37.184;2022-09-09T05:13:05;1.27;;;1.20;;
65533;SDS011;53640;55.838;37.184;2022-09-09T05:15:33;1.17;;;1.08;;
65533;SDS011;53640;55.838;37.184;2022-09-09T05:18:01;1.95;;;1.65;;
65533;SDS011;53640;55.838;37.184;2022-09-09T05:20:32;1.38;;;1.27;;
65533;SDS011;53640;55.838;37.184;2022-09-09T05:23:01;2.63;;;1.05;;
65533;SDS011;53640;55.838;37.184;2022-09-09T05:25:31;2.05;;;1.10;;
65533;SDS011;53640;55.838;37.184;2022-09-09T05:27:58;1.08;;;1.00;;
65533;SDS011;53640;55.838;37.184;2022-09-09T05:30:26;1.40;;;0.88;;
65533;SDS011;53640;55.838;37.184;2022-09-09T05:33:11;0.70;;;0.70;;
65533;SDS011;53640;55.838;37.184;2022-09-09T05:35:37;3.25;;;1.48;;
65533;SDS011;53640;55.838;37.184;2022-09-09T05:38:04;1.63;;;0.82;;
65533;SDS011;53640;55.838;37.184;2022-09-09T05:40:31;0.98;;;0.75;;
65533;SDS011;53640;55.838;37.184;2022-09-09T05:42:59;0.75;;;0.75;;
65533;SDS011;53640;55.838;37.184;2022-09-09T05:45:26;2.60;;;1.00;;
65533;SDS011;53640;55.838;37.184;2022-09-09T05:47:53;0.65;;;0.60;;
65533;SDS011;53640;55.838;37.184;2022-09-09T05:50:19;2.20;;;0.90;;
65533;SDS011;53640;55.838;37.184;2022-09-09T05:52:46;1.17;;;1.05;;
65533;SDS011;53640;55.838;37.184;2022-09-09T05:55:15;0.70;;;0.70;;
65533;SDS011;53640;55.838;37.184;2022-09-09T05:57:42;0.88;;;0.80;;
65533;SDS011;53640;55.838;37.184;2022-09-09T06:00:08;1.02;;;1.02;;
65533;SDS011;53640;55.838;37.184;2022-09-09T06:02:40;0.63;;;0.63;;
65533;SDS011;53640;55.838;37.184;2022-09-09T06:05:09;0.60;;;0.60;;
65533;SDS011;53640;55.838;37.184;2022-09-09T06:07:37;2.17;;;0.63;;
65533;SDS011;53640;55.838;37.184;2022-09-09T06:10:04;4.38;;;0.95;;
65533;SDS011;53640;55.838;37.184;2022-09-09T06:12:31;1.52;;;0.88;;
65533;SDS011;53640;55.838;37.184;2022-09-09T06:14:58;1.20;;;0.70;;
65533;SDS011;53640;55.838;37.184;2022-09-09T06:17:25;0.60;;;0.60;;
65533;SDS011;53640;55.838;37.184;2022-09-09T06:19:52;0.70;;;0.70;;
65533;SDS011;53640;55.838;37.184;2022-09-09T06:22:20;4.10;;;0.70;;
65533;SDS011;53640;55.838;37.184;2022-09-09T06:24:46;0.70;;;0.70;;
65533;SDS011;53640;55.838;37.184;2022-09-09T06:27:13;0.45;;;0.45;;
65533;SDS011;53640;55.838;37.184;2022-09-09T06:29:41;2.40;;;0.50;;
65533;SDS011;53640;55.838;37.184;2022-09-09T06:32:07;1.75;;;0.60;;
65533;SDS011;53640;55.838;37.184;2022-09-09T06:34:35;0.75;;;0.55;;
65533;SDS011;53640;55.838;37.184;2022-09-09T06:37:02;0.50;;;0.40;;
65533;SDS011;53640;55.838;37.184;2022-09-09T06:39:39;0.85;;;0.50;;
65533;SDS011;53640;55.838;37.184;2022-09-09T06:42:07;0.30;;;0.30;;
65533;SDS011;53640;55.838;37.184;2022-09-09T06:44:52;3.20;;;0.68;;
65533;SDS011;53640;55.838;37.184;2022-09-09T06:47:32;0.40;;;0.40;;
65533;SDS011;53640;55.838;37.184;2022-09-09T06:49:59;0.70;;;0.40;;
65533;SDS011;53640;55.838;37.184;2022-09-09T06:52:25;3.45;;;0.70;;
65533;SDS011;53640;55.838;37.184;2022-09-09T06:54:53;0.57;;;0.57;;
65533;SDS011;53640;55.838;37.184;2022-09-09T06:57:21;0.60;;;0.60;;
65533;SDS011;53640;55.838;37.184;2022-09-09T06:59:47;1.27;;;0.70;;
65533;SDS011;53640;55.838;37.184;2022-09-09T07:02:14;1.10;;;1.00;;
65533;SDS011;53640;55.838;37.184;2022-09-09T07:04:40;0.60;;;0.57;;
65533;SDS011;53640;55.838;37.184;2022-09-09T07:07:07;1.13;;;0.60;;
65533;SDS011;53640;55.838;37.184;2022-09-09T07:09:36;0.57;;;0.55;;
65533;SDS011;53640;55.838;37.184;2022-09-09T07:12:03;1.92;;;0.77;;
65533;SDS011;53640;55.838;37.184;2022-09-09T07:14:34;0.60;;;0.60;;
65533;SDS011;53640;55.838;37.184;2022-09-09T07:17:05;1.67;;;1.00;;
65533;SDS011;53640;55.838;37.184;2022-09-09T07:19:37;1.35;;;0.82;;
65533;SDS011;53640;55.838;37.184;2022-09-09T07:22:04;0.93;;;0.60;;
65533;SDS011;53640;55.838;37.184;2022-09-09T07:24:32;0.40;;;0.40;;
65533;SDS011;53640;55.838;37.184;2022-09-09T07:26:59;1.23;;;0.43;;
65533;SDS011;53640;55.838;37.184;2022-09-09T07:29:26;0.63;;;0.40;;
65533;SDS011;53640;55.838;37.184;2022-09-09T07:31:53;0.55;;;0.55;;
65533;SDS011;53640;55.838;37.184;2022-09-09T07:34:25;0.90;;;0.57;;
65533;SDS011;53640;55.838;37.184;2022-09-09T07:36:51;1.58;;;0.70;;
65533;SDS011;53640;55.838;37.184;2022-09-09T07:39:19;3.03;;;0.60;;
65533;SDS011;53640;55.838;37.184;2022-09-09T07:41:49;0.80;;;0.80;;
65533;SDS011;53640;55.838;37.184;2022-09-09T07:44:20;1.02;;;0.60;;
65533;SDS011;53640;55.838;37.184;2022-09-09T07:46:51;0.60;;;0.60;;
65533;SDS011;53640;55.838;37.184;2022-09-09T07:49:22;6.15;;;0.60;;
65533;SDS011;53640;55.838;37.184;2022-09-09T07:51:49;9.07;;;0.88;;
65533;SDS011;53640;55.838;37.184;2022-09-09T07:54:18;2.83;;;0.68;;
65533;SDS011;53640;55.838;37.184;2022-09-09T07:56:50;1.85;;;0.70;;
65533;SDS011;53640;55.838;37.184;2022-09-09T07:59:18;0.60;;;0.60;;
65533;SDS011;53640;55.838;37.184;2022-09-09T08:01:49;2.70;;;0.60;;
65533;SDS011;53640;55.838;37.184;2022-09-09T08:04:21;1.00;;;0.60;;
65533;SDS011;53640;55.838;37.184;2022-09-09T08:06:59;1.10;;;0.80;;
65533;SDS011;53640;55.838;37.184;2022-09-09T08:09:29;0.45;;;0.45;;
65533;SDS011;53640;55.838;37.184;2022-09-09T08:12:10;1.55;;;1.13;;
65533;SDS011;53640;55.838;37.184;2022-09-09T08:14:39;0.55;;;0.55;;
65533;SDS011;53640;55.838;37.184;2022-09-09T08:17:06;1.52;;;0.73;;
65533;SDS011;53640;55.838;37.184;2022-09-09T08:19:33;0.35;;;0.30;;
65533;SDS011;53640;55.838;37.184;2022-09-09T08:22:02;0.45;;;0.45;;
65533;SDS011;53640;55.838;37.184;2022-09-09T08:24:35;0.68;;;0.50;;
65533;SDS011;53640;55.838;37.184;2022-09-09T08:27:02;1.05;;;0.60;;
65533;SDS011;53640;55.838;37.184;2022-09-09T08:29:28;0.82;;;0.60;;
65533;SDS011;53640;55.838;37.184;2022-09-09T08:31:56;0.60;;;0.60;;
65533;SDS011;53640;55.838;37.184;2022-09-09T08:34:25;1.42;;;0.80;;
65533;SDS011;53640;55.838;37.184;2022-09-09T08:36:53;0.95;;;0.90;;
65533;SDS011;53640;55.838;37.184;2022-09-09T08:39:27;0.70;;;0.70;;
65533;SDS011;53640;55.838;37.184;2022-09-09T08:42:55;2.83;;;1.38;;
65533;SDS011;53640;55.838;37.184;2022-09-09T08:48:15;0.43;;;0.43;;
65533;SDS011;53640;55.838;37.184;2022-09-09T08:50:49;1.35;;;0.50;;
65533;SDS011;53640;55.838;37.184;2022-09-09T08:53:23;0.65;;;0.60;;
65533;SDS011;53640;55.838;37.184;2022-09-09T08:55:59;0.55;;;0.45;;
65533;SDS011;53640;55.838;37.184;2022-09-09T08:58:49;2.15;;;0.50;;
65533;SDS011;53640;55.838;37.184;2022-09-09T09:01:28;0.40;;;0.40;;
65533;SDS011;53640;55.838;37.184;2022-09-09T09:12:30;1.15;;;1.05;;
65533;SDS011;53640;55.838;37.184;2022-09-09T09:17:49;1.27;;;0.60;;
65533;SDS011;53640;55.838;37.184;2022-09-09T09:20:18;7.88;;;0.70;;
65533;SDS011;53640;55.838;37.184;2022-09-09T09:23:05;1.00;;;0.63;;
65533;SDS011;53640;55.838;37.184;2022-09-09T09:25:34;2.20;;;0.95;;
65533;SDS011;53640;55.838;37.184;2022-09-09T09:36:17;1.08;;;0.57;;
65533;SDS011;53640;55.838;37.184;2022-09-09T09:39:01;2.08;;;1.15;;
65533;SDS011;53640;55.838;37.184;2022-09-09T09:41:40;1.60;;;0.70;;
65533;SDS011;53640;55.838;37.184;2022-09-09T09:44:28;1.38;;;0.60;;
65533;SDS011;53640;55.838;37.184;2022-09-09T09:47:10;1.60;;;0.45;;
65533;SDS011;53640;55.838;37.184;2022-09-09T09:49:53;0.90;;;0.50;;
65533;SDS011;53640;55.838;37.184;2022-09-09T09:52:23;4.93;;;1.35;;
65533;SDS011;53640;55.838;37.184;2022-09-09T09:54:51;0.40;;;0.40;;
65533;SDS011;53640;55.838;37.184;2022-09-09T09:57:22;0.55;;;0.50;;
65533;SDS011;53640;55.838;37.184;2022-09-09T10:02:59;0.82;;;0.57;;
65533;SDS011;53640;55.838;37.184;2022-09-09T10:05:29;0.75;;;0.60;;
65533;SDS011;53640;55.838;37.184;2022-09-09T10:08:08;0.88;;;0.88;;
65533;SDS011;53640;55.838;37.184;2022-09-09T10:11:04;0.68;;;0.68;;
65533;SDS011;53640;55.838;37.184;2022-09-09T10:16:31;0.80;;;0.60;;
65533;SDS011;53640;55.838;37.184;2022-09-09T10:21:56;1.23;;;0.80;;
65533;SDS011;53640;55.838;37.184;2022-09-09T10:24:40;1.95;;;0.40;;
65533;SDS011;53640;55.838;37.184;2022-09-09T10:27:36;0.55;;;0.55;;
65533;SDS011;53640;55.838;37.184;2022-09-09T10:30:24;2.17;;;0.68;;
65533;SDS011;53640;55.838;37.184;2022-09-09T10:33:07;1.27;;;0.60;;
65533;SDS011;53640;55.838;37.184;2022-09-09T10:41:09;1.23;;;0.60;;
65533;SDS011;53640;55.838;37.184;2022-09-09T10:55:37;0.60;;;0.60;;
65533;SDS011;53640;55.838;37.184;2022-09-09T10:58:09;0.60;;;0.60;;
65533;SDS011;53640;55.838;37.184;2022-09-09T11:00:42;0.60;;;0.60;;
65533;SDS011;53640;55.838;37.184;2022-09-09T11:03:21;5.43;;;0.90;;
65533;SDS011;53640;55.838;37.184;2022-09-09T11:05:53;0.82;;;0.82;;
65533;SDS011;53640;55.838;37.184;2022-09-09T11:08:26;2.53;;;0.98;;
65533;SDS011;53640;55.838;37.184;2022-09-09T11:11:04;0.90;;;0.80;;
65533;SDS011;53640;55.838;37.184;2022-09-09T11:16:40;2.50;;;0.80;;
65533;SDS011;53640;55.838;37.184;2022-09-09T11:19:16;0.70;;;0.70;;
65533;SDS011;53640;55.838;37.184;2022-09-09T11:21:45;1.00;;;0.90;;
65533;SDS011;53640;55.838;37.184;2022-09-09T11:35:30;1.23;;;1.10;;
65533;SDS011;53640;55.838;37.184;2022-09-09T11:38:05;1.65;;;1.00;;
65533;SDS011;53640;55.838;37.184;2022-09-09T11:40:47;0.60;;;0.60;;
65533;SDS011;53640;55.838;37.184;2022-09-09T11:43:24;0.80;;;0.73;;
65533;SDS011;53640;55.838;37.184;2022-09-09T11:45:59;3.10;;;0.80;;
65533;SDS011;53640;55.838;37.184;2022-09-09T11:48:41;2.80;;;1.10;;
65533;SDS011;53640;55.838;37.184;2022-09-09T11:51:12;1.30;;;0.70;;
65533;SDS011;53640;55.838;37.184;2022-09-09T11:53:52;4.07;;;1.50;;
65533;SDS011;53640;55.838;37.184;2022-09-09T11:56:24;0.98;;;0.63;;
65533;SDS011;53640;55.838;37.184;2022-09-09T11:59:02;1.80;;;0.70;;
65533;SDS011;53640;55.838;37.184;2022-09-09T12:01:50;0.75;;;0.75;;
65533;SDS011;53640;55.838;37.184;2022-09-09T12:09:25;1.48;;;1.02;;
65533;SDS011;53640;55.838;37.184;2022-09-09T12:19:48;0.73;;;0.73;;
65533;SDS011;53640;55.838;37.184;2022-09-09T12:27:58;2.00;;;0.82;;
65533;SDS011;53640;55.838;37.184;2022-09-09T12:30:45;0.60;;;0.60;;
65533;SDS011;53640;55.838;37.184;2022-09-09T12:33:16;0.85;;;0.80;;
65533;SDS011;53640;55.838;37.184;2022-09-09T12:35:45;1.92;;;0.73;;
65533;SDS011;53640;55.838;37.184;2022-09-09T12:38:25;1.65;;;0.85;;
65533;SDS011;53640;55.838;37.184;2022-09-09T12:40:58;1.25;;;0.82;;
65533;SDS011;53640;55.838;37.184;2022-09-09T12:43:25;2.75;;;1.10;;
65533;SDS011;53640;55.838;37.184;2022-09-09T12:46:03;1.02;;;1.00;;
65533;SDS011;53640;55.838;37.184;2022-09-09T12:48:37;0.75;;;0.75;;
65533;SDS011;53640;55.838;37.184;2022-09-09T12:54:04;1.48;;;0.85;;
65533;SDS011;53640;55.838;37.184;2022-09-09T12:56:31;1.10;;;0.63;;
65533;SDS011;53640;55.838;37.184;2022-09-09T12:59:25;1.25;;;1.10;;
65533;SDS011;53640;55.838;37.184;2022-09-09T13:02:19;0.95;;;0.95;;
65533;SDS011;53640;55.838;37.184;2022-09-09T13:04:53;0.85;;;0.85;;
65533;SDS011;53640;55.838;37.184;2022-09-09T13:07:21;1.35;;;0.85;;
65533;SDS011;53640;55.838;37.184;2022-09-09T13:09:48;0.75;;;0.75;;
65533;SDS011;53640;55.838;37.184;2022-09-09T13:12:19;1.10;;;0.63;;
65533;SDS011;53640;55.838;37.184;2022-09-09T13:14:49;1.25;;;0.70;;
65533;SDS011;53640;55.838;37.184;2022-09-09T13:17:37;1.08;;;0.98;;
65533;SDS011;53640;55.838;37.184;2022-09-09T13:20:05;1.42;;;0.70;;
65533;SDS011;53640;55.838;37.184;2022-09-09T13:22:35;0.95;;;0.82;;
65533;SDS011;53640;55.838;37.184;2022-09-09T13:27:33;1.90;;;1.33;;
65533;SDS011;53640;55.838;37.184;2022-09-09T13:35:49;1.75;;;0.90;;
65533;SDS011;53640;55.838;37.184;2022-09-09T13:38:16;1.45;;;1.00;;
65533;SDS011;53640;55.838;37.184;2022-09-09T13:40:56;2.50;;;1.00;;
65533;SDS011;53640;55.838;37.184;2022-09-09T13:43:23;1.00;;;0.93;;
65533;SDS011;53640;55.838;37.184;2022-09-09T13:45:55;1.70;;;0.98;;
65533;SDS011;53640;55.838;37.184;2022-09-09T13:48:28;0.90;;;0.90;;
65533;SDS011;53640;55.838;37.184;2022-09-09T13:50:59;1.30;;;1.20;;
65533;SDS011;53640;55.838;37.184;2022-09-09T13:53:28;1.92;;;1.42;;
65533;SDS011;53640;55.838;37.184;2022-09-09T13:55:56;3.15;;;1.90;;
65533;SDS011;53640;55.838;37.184;2022-09-09T13:58:25;3.22;;;1.65;;
65533;SDS011;53640;55.838;37.184;2022-09-09T14:00:52;2.28;;;1.30;;
65533;SDS011;53640;55.838;37.184;2022-09-09T14:03:21;2.05;;;1.60;;
65533;SDS011;53640;55.838;37.184;2022-09-09T14:05:47;2.30;;;1.30;;
65533;SDS011;53640;55.838;37.184;2022-09-09T14:08:22;3.47;;;1.08;;
65533;SDS011;53640;55.838;37.184;2022-09-09T14:10:51;0.90;;;0.90;;
65533;SDS011;53640;55.838;37.184;2022-09-09T14:13:18;1.20;;;1.10;;
65533;SDS011;53640;55.838;37.184;2022-09-09T14:15:48;1.45;;;0.90;;
65533;SDS011;53640;55.838;37.184;2022-09-09T14:18:15;2.38;;;0.95;;
65533;SDS011;53640;55.838;37.184;2022-09-09T14:20:41;2.80;;;0.93;;
65533;SDS011;53640;55.838;37.184;2022-09-09T14:23:09;2.08;;;0.90;;
65533;SDS011;53640;55.838;37.184;2022-09-09T14:25:38;1.35;;;1.15;;
65533;SDS011;53640;55.838;37.184;2022-09-09T14:28:07;2.97;;;1.10;;
65533;SDS011;53640;55.838;37.184;2022-09-09T14:30:39;1.25;;;1.10;;
65533;SDS011;53640;55.838;37.184;2022-09-09T14:33:07;0.80;;;0.80;;
65533;SDS011;53640;55.838;37.184;2022-09-09T14:35:36;0.80;;;0.80;;
65533;SDS011;53640;55.838;37.184;2022-09-09T14:38:04;0.80;;;0.80;;
65533;SDS011;53640;55.838;37.184;2022-09-09T14:40:31;1.50;;;0.80;;
65533;SDS011;53640;55.838;37.184;2022-09-09T14:42:57;6.45;;;0.95;;
65533;SDS011;53640;55.838;37.184;2022-09-09T14:45:24;1.00;;;0.80;;
65533;SDS011;53640;55.838;37.184;2022-09-09T14:47:52;1.40;;;1.30;;
65533;SDS011;53640;55.838;37.184;2022-09-09T14:50:18;1.95;;;1.15;;
65533;SDS011;53640;55.838;37.184;2022-09-09T14:52:46;0.95;;;0.93;;
65533;SDS011;53640;55.838;37.184;2022-09-09T14:55:12;6.85;;;1.30;;
65533;SDS011;53640;55.838;37.184;2022-09-09T14:57:39;1.60;;;1.00;;
65533;SDS011;53640;55.838;37.184;2022-09-09T15:00:06;1.10;;;1.00;;
65533;SDS011;53640;55.838;37.184;2022-09-09T15:02:34;2.33;;;1.20;;
65533;SDS011;53640;55.838;37.184;2022-09-09T15:05:00;1.30;;;1.10;;
65533;SDS011;53640;55.838;37.184;2022-09-09T15:07:29;0.90;;;0.90;;
65533;SDS011;53640;55.838;37.184;2022-09-09T15:09:57;1.25;;;1.15;;
65533;SDS011;53640;55.838;37.184;2022-09-09T15:12:25;1.63;;;1.50;;
65533;SDS011;53640;55.838;37.184;2022-09-09T15:14:54;2.28;;;1.55;;
65533;SDS011;53640;55.838;37.184;2022-09-09T15:17:20;1.35;;;1.23;;
65533;SDS011;53640;55.838;37.184;2022-09-09T15:19:47;1.38;;;1.00;;
65533;SDS011;53640;55.838;37.184;2022-09-09T15:22:15;3.08;;;1.40;;
65533;SDS011;53640;55.838;37.184;2022-09-09T15:24:43;5.55;;;1.50;;
65533;SDS011;53640;55.838;37.184;2022-09-09T15:27:09;1.88;;;1.45;;
65533;SDS011;53640;55.838;37.184;2022-09-09T15:29:36;1.90;;;1.27;;
65533;SDS011;53640;55.838;37.184;2022-09-09T15:40:43;1.75;;;1.30;;
65533;SDS011;53640;55.838;37.184;2022-09-09T15:43:10;1.98;;;1.50;;
65533;SDS011;53640;55.838;37.184;2022-09-09T15:45:38;2.17;;;1.85;;
65533;SDS011;53640;55.838;37.184;2022-09-09T15:48:05;2.10;;;1.60;;
65533;SDS011;53640;55.838;37.184;2022-09-09T15:50:31;2.40;;;2.20;;
65533;SDS011;53640;55.838;37.184;2022-09-09T15:53:00;2.50;;;1.92;;
65533;SDS011;53640;55.838;37.184;2022-09-09T15:55:27;3.50;;;1.88;;
65533;SDS011;53640;55.838;37.184;2022-09-09T16:01:03;2.20;;;2.00;;
65533;SDS011;53640;55.838;37.184;2022-09-09T16:06:05;1.65;;;1.55;;
65533;SDS011;53640;55.838;37.184;2022-09-09T16:08:36;1.40;;;1.30;;
65533;SDS011;53640;55.838;37.184;2022-09-09T16:11:08;1.85;;;1.73;;
65533;SDS011;53640;55.838;37.184;2022-09-09T16:13:36;2.13;;;1.70;;
65533;SDS011;53640;55.838;37.184;2022-09-09T16:16:03;2.38;;;1.73;;
65533;SDS011;53640;55.838;37.184;2022-09-09T16:18:42;2.78;;;1.60;;
65533;SDS011;53640;55.838;37.184;2022-09-09T16:21:31;3.42;;;2.28;;
65533;SDS011;53640;55.838;37.184;2022-09-09T16:24:12;2.13;;;1.90;;
65533;SDS011;53640;55.838;37.184;2022-09-09T16:26:45;3.40;;;2.00;;
65533;SDS011;53640;55.838;37.184;2022-09-09T16:29:14;3.17;;;2.10;;
65533;SDS011;53640;55.838;37.184;2022-09-09T16:31:45;6.60;;;2.17;;
65533;SDS011;53640;55.838;37.184;2022-09-09T16:34:13;3.80;;;2.17;;
65533;SDS011;53640;55.838;37.184;2022-09-09T16:36:42;3.17;;;2.13;;
65533;SDS011;53640;55.838;37.184;2022-09-09T16:39:16;3.90;;;2.28;;
65533;SDS011;53640;55.838;37.184;2022-09-09T16:41:50;4.35;;;2.20;;
65533;SDS011;53640;55.838;37.184;2022-09-09T16:44:18;3.30;;;2.30;;
65533;SDS011;53640;55.838;37.184;2022-09-09T16:46:47;14.77;;;9.93;;
65533;SDS011;53640;55.838;37.184;2022-09-09T16:49:20;8.52;;;7.07;;
65533;SDS011;53640;55.838;37.184;2022-09-09T16:51:49;10.52;;;6.93;;
65533;SDS011;53640;55.838;37.184;2022-09-09T16:54:20;10.60;;;6.47;;
65533;SDS011;53640;55.838;37.184;2022-09-09T17:04:39;9.98;;;6.45;;
65533;SDS011;53640;55.838;37.184;2022-09-09T17:07:06;10.23;;;5.68;;
65533;SDS011;53640;55.838;37.184;2022-09-09T17:09:36;10.52;;;5.78;;
65533;SDS011;53640;55.838;37.184;2022-09-09T17:12:03;6.75;;;5.00;;
65533;SDS011;53640;55.838;37.184;2022-09-09T17:14:30;8.27;;;4.90;;
65533;SDS011;53640;55.838;37.184;2022-09-09T17:16:57;8.50;;;4.80;;
65533;SDS011;53640;55.838;37.184;2022-09-09T17:19:25;11.93;;;5.78;;
65533;SDS011;53640;55.838;37.184;2022-09-09T17:21:51;7.85;;;5.03;;
65533;SDS011;53640;55.838;37.184;2022-09-09T17:24:19;7.43;;;4.88;;
65533;SDS011;53640;55.838;37.184;2022-09-09T17:26:46;7.68;;;4.40;;
65533;SDS011;53640;55.838;37.184;2022-09-09T17:29:12;5.38;;;3.80;;
65533;SDS011;53640;55.838;37.184;2022-09-09T17:31:39;8.38;;;4.57;;
65533;SDS011;53640;55.838;37.184;2022-09-09T17:34:09;6.30;;;4.05;;
65533;SDS011;53640;55.838;37.184;2022-09-09T17:36:36;8.45;;;4.57;;
65533;SDS011;53640;55.838;37.184;2022-09-09T17:39:04;7.55;;;4.55;;
65533;SDS011;53640;55.838;37.184;2022-09-09T17:44:12;5.70;;;4.10;;
65533;SDS011;53640;55.838;37.184;2022-09-09T17:46:44;6.72;;;4.35;;
65533;SDS011;53640;55.838;37.184;2022-09-09T17:49:49;9.25;;;4.28;;
65533;SDS011;53640;55.838;37.184;2022-09-09T17:53:10;10.40;;;5.07;;